Time,TemperatureF,DewpointF,PressureIn,WindDirection,WindDirectionDegrees,WindSpeedMPH,WindSpeedGustMPH,Humidity,HourlyPrecipIn,Conditions,Clouds,dailyrainin,SolarRadiationWatts/m^2,SoftwareType,DateUTC
2013-07-01 00:01:00,68.0,68.0,-100.00,SSW,205,7.0,14.0,99,0.00,,,0.08,1.000000,,2013-07-01 04:01:00,
2013-07-01 00:11:00,68.0,68.0,-100.00,SSW,205,7.0,14.0,99,0.00,,,0.08,1.000000,,2013-07-01 04:11:00,
2013-07-01 00:22:00,68.0,68.0,-100.00,SSW,205,7.0,14.0,99,0.00,,,0.08,1.000000,,2013-07-01 04:22:00,
2013-07-01 00:53:00,68.0,68.0,-100.00,SW,224,6.0,14.0,99,0.00,,,0.08,0.000000,,2013-07-01 04:53:00,
2013-07-01 01:02:00,68.0,68.0,-100.00,SW,224,6.0,14.0,99,0.00,,,0.08,0.000000,,2013-07-01 05:02:00,
2013-07-01 01:11:00,68.0,68.0,-100.00,SW,224,6.0,14.0,99,0.00,,,0.08,0.000000,,2013-07-01 05:11:00,
2013-07-01 01:22:00,68.0,68.0,-100.00,SW,224,6.0,14.0,99,0.00,,,0.08,0.000000,,2013-07-01 05:22:00,
2013-07-01 01:52:00,68.0,68.0,-100.00,SSW,211,6.0,11.0,99,0.00,,,0.08,1.000000,,2013-07-01 05:52:00,
2013-07-01 02:02:00,68.0,68.0,-100.00,SSW,211,6.0,11.0,99,0.00,,,0.08,1.000000,,2013-07-01 06:02:00,
2013-07-01 02:12:00,68.0,68.0,-100.00,SSW,211,6.0,11.0,99,0.00,,,0.08,1.000000,,2013-07-01 06:12:00,
2013-07-01 02:24:00,68.0,68.0,-100.00,SSW,211,6.0,11.0,99,0.00,,,0.08,1.000000,,2013-07-01 06:24:00,
2013-07-01 02:53:00,67.0,67.0,-100.00,SSW,211,6.0,10.0,99,0.00,,,0.08,1.000000,,2013-07-01 06:53:00,
2013-07-01 03:02:00,67.0,67.0,-100.00,SSW,211,6.0,10.0,99,0.00,,,0.08,1.000000,,2013-07-01 07:02:00,
2013-07-01 03:12:00,67.0,67.0,-100.00,SSW,211,6.0,10.0,99,0.00,,,0.08,1.000000,,2013-07-01 07:12:00,
2013-07-01 03:22:00,67.0,67.0,-100.00,SSW,211,6.0,10.0,99,0.00,,,0.08,1.000000,,2013-07-01 07:22:00,
2013-07-01 03:53:00,68.0,68.0,-100.00,SSW,199,7.0,11.0,100,0.00,,,0.08,1.000000,,2013-07-01 07:53:00,
2013-07-01 04:01:00,68.0,68.0,-100.00,SSW,199,7.0,11.0,100,0.00,,,0.08,1.000000,,2013-07-01 08:01:00,
2013-07-01 04:12:00,68.0,68.0,-100.00,SSW,199,7.0,11.0,100,0.00,,,0.08,1.000000,,2013-07-01 08:12:00,
2013-07-01 04:22:00,68.0,68.0,-100.00,SSW,199,7.0,11.0,100,0.00,,,0.08,1.000000,,2013-07-01 08:22:00,
2013-07-01 04:52:00,68.0,68.0,-100.00,SSW,204,4.0,11.0,100,0.00,,,0.08,1.000000,,2013-07-01 08:52:00,
2013-07-01 05:02:00,68.0,68.0,-100.00,SSW,204,4.0,11.0,100,0.00,,,0.08,1.000000,,2013-07-01 09:02:00,
2013-07-01 05:12:00,68.0,68.0,-100.00,SSW,204,4.0,11.0,100,0.00,,,0.08,1.000000,,2013-07-01 09:12:00,
2013-07-01 05:22:00,68.0,68.0,-100.00,SSW,204,4.0,11.0,100,0.00,,,0.08,1.000000,,2013-07-01 09:22:00,
2013-07-01 05:53:00,68.0,68.0,-100.00,SSW,204,4.0,8.0,100,0.00,,,0.08,1.000000,,2013-07-01 09:53:00,
2013-07-01 06:03:00,68.0,68.0,-100.00,SSW,204,4.0,8.0,100,0.00,,,0.08,1.000000,,2013-07-01 10:03:00,
2013-07-01 06:12:00,68.0,68.0,-100.00,SSW,204,4.0,8.0,100,0.00,,,0.08,1.000000,,2013-07-01 10:12:00,
2013-07-01 06:22:00,68.0,68.0,-100.00,SSW,204,4.0,8.0,100,0.00,,,0.08,1.000000,,2013-07-01 10:22:00,
2013-07-01 06:52:00,68.0,68.0,-100.00,SSW,196,5.0,8.0,100,0.00,,,0.08,12.000000,,2013-07-01 10:52:00,
2013-07-01 07:02:00,68.0,68.0,-100.00,SSW,196,5.0,8.0,100,0.00,,,0.08,12.000000,,2013-07-01 11:02:00,
2013-07-01 07:12:00,68.0,68.0,-100.00,SSW,196,5.0,8.0,100,0.00,,,0.08,12.000000,,2013-07-01 11:12:00,
2013-07-01 07:22:00,68.0,68.0,-100.00,SSW,196,5.0,8.0,100,0.00,,,0.08,12.000000,,2013-07-01 11:22:00,
2013-07-01 07:52:00,69.0,69.0,-100.00,South,183,5.0,10.0,100,0.00,,,0.08,40.000000,,2013-07-01 11:52:00,
2013-07-01 08:01:00,69.0,69.0,-100.00,South,183,5.0,10.0,100,0.00,,,0.08,40.000000,,2013-07-01 12:01:00,
2013-07-01 08:11:00,69.0,69.0,-100.00,South,183,5.0,10.0,100,0.00,,,0.08,40.000000,,2013-07-01 12:11:00,
2013-07-01 08:22:00,69.0,69.0,-100.00,South,183,5.0,10.0,100,0.00,,,0.08,40.000000,,2013-07-01 12:22:00,
2013-07-01 08:53:00,68.0,68.0,-100.00,South,191,5.0,10.0,100,0.00,,,0.08,51.000000,,2013-07-01 12:53:00,
2013-07-01 09:02:00,68.0,68.0,-100.00,South,191,5.0,10.0,100,0.00,,,0.08,51.000000,,2013-07-01 13:02:00,
2013-07-01 09:12:00,68.0,68.0,-100.00,South,191,5.0,10.0,100,0.00,,,0.08,51.000000,,2013-07-01 13:12:00,
2013-07-01 09:23:00,68.0,68.0,-100.00,South,191,5.0,10.0,100,0.00,,,0.08,51.000000,,2013-07-01 13:23:00,
2013-07-01 10:02:00,69.0,69.0,-100.00,SSW,197,9.0,12.0,100,0.13,,,0.21,56.000000,,2013-07-01 14:02:00,
2013-07-01 10:11:00,69.0,69.0,-100.00,SSW,197,9.0,12.0,100,0.13,,,0.21,56.000000,,2013-07-01 14:11:00,
2013-07-01 10:22:00,69.0,69.0,-100.00,SSW,197,9.0,12.0,100,0.13,,,0.21,56.000000,,2013-07-01 14:22:00,
2013-07-01 10:53:00,73.0,72.0,-100.00,SSW,199,7.0,15.0,97,0.00,,,0.21,355.000000,,2013-07-01 14:53:00,
2013-07-01 11:02:00,73.0,72.0,-100.00,SSW,199,7.0,15.0,97,0.00,,,0.21,355.000000,,2013-07-01 15:02:00,
2013-07-01 11:12:00,73.0,72.0,-100.00,SSW,199,7.0,15.0,97,0.00,,,0.21,355.000000,,2013-07-01 15:12:00,
2013-07-01 11:23:00,73.0,72.0,-100.00,SSW,199,7.0,15.0,97,0.00,,,0.21,355.000000,,2013-07-01 15:23:00,
2013-07-01 12:01:00,71.0,69.0,-100.00,SSW,197,6.0,15.0,95,0.01,,,0.22,301.000000,,2013-07-01 16:01:00,
2013-07-01 12:11:00,71.0,69.0,-100.00,SSW,197,6.0,15.0,95,0.01,,,0.22,301.000000,,2013-07-01 16:11:00,
2013-07-01 12:22:00,71.0,69.0,-100.00,SSW,197,6.0,15.0,95,0.01,,,0.22,301.000000,,2013-07-01 16:22:00,
2013-07-01 12:53:00,71.0,70.0,-100.00,SW,218,5.0,10.0,97,0.00,,,0.22,199.000000,,2013-07-01 16:53:00,
2013-07-01 13:02:00,71.0,70.0,-100.00,SW,218,5.0,10.0,97,0.00,,,0.22,199.000000,,2013-07-01 17:02:00,
2013-07-01 13:12:00,71.0,70.0,-100.00,SW,218,5.0,10.0,97,0.00,,,0.22,199.000000,,2013-07-01 17:12:00,
2013-07-01 13:23:00,71.0,70.0,-100.00,SW,218,5.0,10.0,97,0.00,,,0.22,199.000000,,2013-07-01 17:23:00,
2013-07-01 13:53:00,72.0,70.0,-100.00,SSW,193,5.0,15.0,95,0.00,,,0.22,308.000000,,2013-07-01 17:53:00,
2013-07-01 14:02:00,72.0,70.0,-100.00,SSW,193,5.0,15.0,95,0.00,,,0.22,308.000000,,2013-07-01 18:02:00,
2013-07-01 14:11:00,72.0,70.0,-100.00,SSW,193,5.0,15.0,95,0.00,,,0.22,308.000000,,2013-07-01 18:11:00,
2013-07-01 14:22:00,72.0,70.0,-100.00,SSW,193,5.0,15.0,95,0.00,,,0.22,308.000000,,2013-07-01 18:22:00,
2013-07-01 14:53:00,71.0,69.0,-100.00,SSW,200,6.0,11.0,93,0.00,,,0.22,350.000000,,2013-07-01 18:53:00,
2013-07-01 15:02:00,71.0,69.0,-100.00,SSW,200,6.0,11.0,93,0.00,,,0.22,350.000000,,2013-07-01 19:02:00,
2013-07-01 15:11:00,71.0,69.0,-100.00,SSW,200,6.0,11.0,93,0.00,,,0.22,350.000000,,2013-07-01 19:11:00,
2013-07-01 15:22:00,71.0,69.0,-100.00,SSW,200,6.0,11.0,93,0.00,,,0.22,350.000000,,2013-07-01 19:22:00,
2013-07-01 15:53:00,75.0,71.0,-100.00,SSW,203,7.0,13.0,88,0.00,,,0.22,470.000000,,2013-07-01 19:53:00,
2013-07-01 16:02:00,75.0,71.0,-100.00,SSW,203,7.0,13.0,88,0.00,,,0.22,470.000000,,2013-07-01 20:02:00,
2013-07-01 16:11:00,75.0,71.0,-100.00,SSW,203,7.0,13.0,88,0.00,,,0.22,470.000000,,2013-07-01 20:11:00,
2013-07-01 16:22:00,75.0,71.0,-100.00,SSW,203,7.0,13.0,88,0.00,,,0.22,470.000000,,2013-07-01 20:22:00,
2013-07-01 17:02:00,72.0,69.0,-100.00,SW,225,6.0,14.0,91,0.00,,,0.22,376.000000,,2013-07-01 21:02:00,
2013-07-01 17:11:00,72.0,69.0,-100.00,SW,225,6.0,14.0,91,0.00,,,0.22,376.000000,,2013-07-01 21:11:00,
2013-07-01 17:24:00,72.0,69.0,-100.00,SW,225,6.0,14.0,91,0.00,,,0.22,376.000000,,2013-07-01 21:24:00,
2013-07-01 17:53:00,70.0,69.0,-100.00,SSW,213,7.0,15.0,96,0.00,,,0.22,91.000000,,2013-07-01 21:53:00,
2013-07-01 18:01:00,70.0,69.0,-100.00,SSW,213,7.0,15.0,96,0.00,,,0.22,91.000000,,2013-07-01 22:01:00,
2013-07-01 18:12:00,70.0,69.0,-100.00,SSW,213,7.0,15.0,96,0.00,,,0.22,91.000000,,2013-07-01 22:12:00,
2013-07-01 18:24:00,70.0,69.0,-100.00,SSW,213,7.0,15.0,96,0.00,,,0.22,91.000000,,2013-07-01 22:24:00,
2013-07-01 18:53:00,70.0,69.0,-100.00,SSW,201,4.0,11.0,97,0.00,,,0.22,48.000000,,2013-07-01 22:53:00,
2013-07-01 19:01:00,70.0,69.0,-100.00,SSW,201,4.0,11.0,97,0.00,,,0.22,48.000000,,2013-07-01 23:01:00,
2013-07-01 19:11:00,70.0,69.0,-100.00,SSW,201,4.0,11.0,97,0.00,,,0.22,48.000000,,2013-07-01 23:11:00,
2013-07-01 19:22:00,70.0,69.0,-100.00,SSW,201,4.0,11.0,97,0.00,,,0.22,48.000000,,2013-07-01 23:22:00,
2013-07-01 19:53:00,70.0,69.0,-100.00,SSW,203,6.0,8.0,97,0.00,,,0.22,44.000000,,2013-07-01 23:53:00,
2013-07-01 20:01:00,70.0,69.0,-100.00,SSW,203,6.0,8.0,97,0.00,,,0.22,44.000000,,2013-07-02 00:01:00,
2013-07-01 20:12:00,70.0,69.0,-100.00,SSW,203,6.0,8.0,97,0.00,,,0.22,44.000000,,2013-07-02 00:12:00,
2013-07-01 20:22:00,70.0,69.0,-100.00,SSW,203,6.0,8.0,97,0.00,,,0.22,44.000000,,2013-07-02 00:22:00,
2013-07-01 20:53:00,69.0,68.0,-100.00,SSW,213,5.0,9.0,98,0.00,,,0.21,12.000000,,2013-07-02 00:53:00,
2013-07-01 21:01:00,69.0,68.0,-100.00,SSW,213,5.0,9.0,98,0.00,,,0.21,12.000000,,2013-07-02 01:01:00,
2013-07-01 21:11:00,69.0,68.0,-100.00,SSW,213,5.0,9.0,98,0.00,,,0.21,12.000000,,2013-07-02 01:11:00,
2013-07-01 21:22:00,69.0,68.0,-100.00,SSW,213,5.0,9.0,98,0.00,,,0.21,12.000000,,2013-07-02 01:22:00,
2013-07-01 21:53:00,69.0,68.0,-100.00,SSW,207,4.0,10.0,98,0.00,,,0.18,1.000000,,2013-07-02 01:53:00,
2013-07-01 22:02:00,69.0,68.0,-100.00,SSW,207,4.0,10.0,98,0.00,,,0.18,1.000000,,2013-07-02 02:02:00,
2013-07-01 22:12:00,69.0,68.0,-100.00,SSW,207,4.0,10.0,98,0.00,,,0.18,1.000000,,2013-07-02 02:12:00,
2013-07-01 22:22:00,69.0,68.0,-100.00,SSW,207,4.0,10.0,98,0.00,,,0.18,1.000000,,2013-07-02 02:22:00,
2013-07-01 22:53:00,69.0,68.0,-100.00,SSW,206,4.0,11.0,97,0.00,,,0.14,1.000000,,2013-07-02 02:53:00,
2013-07-01 23:02:00,69.0,68.0,-100.00,SSW,206,4.0,11.0,97,0.00,,,0.14,1.000000,,2013-07-02 03:02:00,
2013-07-01 23:12:00,69.0,68.0,-100.00,SSW,206,4.0,11.0,97,0.00,,,0.14,1.000000,,2013-07-02 03:12:00,
2013-07-01 23:24:00,69.0,68.0,-100.00,SSW,206,4.0,11.0,97,0.00,,,0.14,1.000000,,2013-07-02 03:24:00,